createdAt,value
2022-08-19T00:02:07.666Z,94.20
2022-08-19T00:05:13.500Z,94.40
2022-08-19T00:08:16.480Z,94.50
2022-08-19T00:11:25.545Z,94.50
2022-08-19T00:14:32.646Z,94.60
2022-08-19T00:17:35.885Z,94.80
2022-08-19T00:20:46.256Z,94.30
2022-08-19T00:23:49.869Z,94.40
2022-08-19T00:26:53.572Z,94.60
2022-08-19T00:29:56.606Z,95.00
2022-08-19T00:33:00.144Z,94.80
2022-08-19T00:36:07.283Z,94.50
2022-08-19T00:39:11.800Z,94.60
2022-08-19T00:42:15.855Z,94.70
2022-08-19T00:45:21.375Z,94.70
2022-08-19T00:48:25.245Z,94.60
2022-08-19T00:51:33.413Z,94.40
2022-08-19T00:54:37.625Z,94.30
2022-08-19T00:57:45.565Z,94.80
2022-08-19T01:00:49.100Z,94.90
2022-08-19T01:03:57.150Z,94.80
2022-08-19T01:07:04.271Z,94.90
2022-08-19T01:10:11.179Z,94.80
2022-08-19T01:13:16.246Z,94.60
2022-08-19T01:16:21.353Z,94.70
2022-08-19T01:19:29.664Z,94.70
2022-08-19T01:22:38.351Z,94.60
2022-08-19T01:25:45.882Z,94.50
2022-08-19T01:28:51.881Z,94.60
2022-08-19T01:31:55.266Z,94.50
2022-08-19T01:34:58.905Z,94.70
2022-08-19T01:38:08.696Z,94.80
2022-08-19T01:41:12.673Z,94.90
2022-08-19T01:44:18.937Z,94.70
2022-08-19T01:47:22.241Z,94.50
2022-08-19T01:50:25.182Z,94.70
2022-08-19T01:53:33.603Z,94.70
2022-08-19T01:56:36.978Z,94.70
2022-08-19T01:59:41.429Z,94.90
2022-08-19T02:02:44.619Z,95.10
2022-08-19T02:05:47.601Z,95.40
2022-08-19T02:08:51.930Z,95.50
2022-08-19T02:12:00.264Z,96.00
2022-08-19T02:15:03.932Z,95.30
2022-08-19T02:18:08.314Z,95.70
2022-08-19T02:21:11.678Z,95.60
2022-08-19T02:24:15.994Z,95.60
2022-08-19T02:27:18.905Z,95.60
2022-08-19T02:30:22.983Z,95.70
2022-08-19T02:33:26.195Z,96.10
2022-08-19T02:36:29.380Z,95.80
2022-08-19T02:39:33.660Z,95.50
2022-08-19T02:42:37.051Z,95.30
2022-08-19T02:45:41.694Z,95.40
2022-08-19T02:48:44.728Z,95.30
2022-08-19T02:51:48.806Z,95.20
2022-08-19T02:54:53.065Z,95.70
2022-08-19T02:57:55.989Z,95.60
2022-08-19T03:00:59.489Z,95.50
2022-08-19T03:04:05.203Z,95.30
2022-08-19T03:07:11.129Z,95.40
2022-08-19T03:10:15.753Z,95.60
2022-08-19T03:13:20.306Z,95.10
2022-08-19T03:16:25.556Z,95.40
2022-08-19T03:19:29.417Z,95.30
2022-08-19T03:22:32.315Z,95.90
2022-08-19T03:25:42.926Z,95.90
2022-08-19T03:28:51.804Z,96.10
2022-08-19T03:32:04.611Z,96.20
2022-08-19T03:35:08.498Z,96.00
2022-08-19T03:38:11.431Z,95.80
2022-08-19T03:41:18.733Z,95.90
2022-08-19T03:44:23.982Z,95.90
2022-08-19T03:47:26.934Z,95.80
2022-08-19T03:50:30.620Z,95.70
2022-08-19T03:53:35.321Z,95.60
2022-08-19T03:56:41.343Z,95.60
2022-08-19T03:59:45.079Z,95.60
2022-08-19T04:02:58.438Z,95.50
2022-08-19T04:06:13.624Z,95.60
2022-08-19T04:09:17.549Z,95.70
2022-08-19T04:12:21.952Z,95.50
2022-08-19T04:15:24.917Z,95.40
2022-08-19T04:18:34.689Z,95.40
2022-08-19T04:21:39.284Z,95.30
2022-08-19T04:24:42.234Z,95.30
2022-08-19T04:27:47.355Z,95.40
2022-08-19T04:30:52.924Z,95.00
2022-08-19T04:33:57.668Z,95.50
2022-08-19T04:37:01.002Z,95.60
2022-08-19T04:40:24.179Z,95.50
2022-08-19T04:43:29.025Z,95.90
2022-08-19T04:46:39.352Z,96.20
2022-08-19T04:49:54.031Z,96.30
2022-08-19T04:52:57.665Z,96.20
2022-08-19T04:56:03.069Z,95.70
2022-08-19T04:59:07.403Z,96.20
2022-08-19T05:02:11.218Z,96.10
2022-08-19T05:05:14.211Z,96.20
2022-08-19T05:08:30.808Z,95.90
2022-08-19T05:11:40.091Z,95.90
2022-08-19T05:14:46.487Z,95.50
2022-08-19T05:18:03.328Z,96.00
2022-08-19T05:21:26.519Z,96.00
2022-08-19T05:24:30.225Z,96.00
2022-08-19T05:27:34.341Z,95.80
2022-08-19T05:30:47.255Z,95.50
2022-08-19T05:33:51.357Z,95.90
2022-08-19T05:36:57.239Z,96.00
2022-08-19T05:40:00.396Z,95.40
2022-08-19T05:43:03.476Z,95.80
2022-08-19T05:46:08.226Z,95.30
2022-08-19T05:49:11.266Z,95.40
2022-08-19T05:52:18.829Z,95.50
2022-08-19T05:55:23.584Z,95.90
2022-08-19T05:58:28.177Z,95.70
2022-08-19T06:01:32.646Z,95.70
2022-08-19T06:04:35.818Z,95.60
2022-08-19T06:07:39.781Z,95.30
2022-08-19T06:10:42.724Z,95.40
2022-08-19T06:13:48.106Z,95.60
2022-08-19T06:16:53.234Z,95.60
2022-08-19T06:19:56.192Z,95.90
2022-08-19T06:23:00.355Z,95.50
2022-08-19T06:26:03.588Z,95.30
2022-08-19T06:29:08.214Z,95.70
2022-08-19T06:32:12.955Z,95.40
2022-08-19T06:35:16.160Z,95.10
2022-08-19T06:38:19.168Z,95.00
2022-08-19T06:41:22.194Z,95.00
2022-08-19T06:44:27.508Z,95.90
2022-08-19T06:47:31.931Z,95.50
2022-08-19T06:50:34.888Z,96.00
2022-08-19T06:53:40.381Z,96.30
2022-08-19T06:56:44.471Z,96.20
2022-08-19T06:59:47.421Z,96.80
2022-08-19T07:02:55.828Z,96.30
2022-08-19T07:06:09.660Z,96.40
2022-08-19T07:09:18.497Z,96.60
2022-08-19T07:12:22.632Z,96.20
2022-08-19T07:15:25.599Z,96.50
2022-08-19T07:18:29.995Z,96.50
2022-08-19T07:21:32.988Z,97.00
2022-08-19T07:24:40.905Z,97.60
2022-08-19T07:27:54.508Z,97.70
2022-08-19T07:30:57.600Z,98.20
2022-08-19T07:34:01.857Z,97.80
2022-08-19T07:37:05.809Z,98.30
2022-08-19T07:40:10.340Z,98.10
2022-08-19T07:43:16.950Z,97.90
2022-08-19T07:46:22.403Z,97.60
2022-08-19T07:49:26.950Z,97.50
2022-08-19T07:52:29.920Z,97.60
2022-08-19T07:55:42.110Z,97.30
2022-08-19T07:58:48.616Z,97.30
2022-08-19T08:01:52.426Z,97.30
2022-08-19T08:05:14.227Z,97.40
2022-08-19T08:08:34.583Z,97.20
2022-08-19T08:11:37.943Z,97.60
2022-08-19T08:14:44.232Z,97.00
2022-08-19T08:17:51.342Z,96.60
2022-08-19T08:20:56.373Z,96.90
2022-08-19T08:27:04.750Z,97.10
2022-08-19T08:30:16.915Z,96.40
2022-08-19T08:33:32.995Z,96.70
2022-08-19T08:36:42.553Z,97.30
2022-08-19T08:39:45.527Z,97.00
2022-08-19T08:42:59.416Z,96.50
2022-08-19T08:46:06.710Z,96.50
2022-08-19T08:49:23.861Z,97.00
2022-08-19T08:52:31.949Z,97.30
2022-08-19T08:55:37.411Z,96.70
2022-08-19T08:58:54.449Z,96.70
2022-08-19T09:01:57.792Z,96.60
2022-08-19T09:05:02.387Z,96.50
2022-08-19T09:08:13.809Z,96.60
2022-08-19T09:11:42.693Z,97.40
2022-08-19T09:14:53.078Z,96.90
2022-08-19T09:17:56.063Z,96.90
2022-08-19T09:20:58.982Z,97.10
2022-08-19T09:24:03.814Z,97.00
2022-08-19T09:27:15.998Z,97.60
2022-08-19T09:30:24.834Z,97.30
2022-08-19T09:33:27.841Z,98.00
2022-08-19T09:36:36.874Z,98.10
2022-08-19T09:39:43.559Z,98.20
2022-08-19T09:42:50.050Z,98.00
2022-08-19T09:45:55.548Z,98.10
2022-08-19T09:49:03.155Z,98.40
2022-08-19T09:52:13.590Z,97.80
2022-08-19T09:55:18.599Z,98.50
2022-08-19T09:58:26.439Z,99.10
2022-08-19T10:01:32.185Z,99.80
2022-08-19T10:04:49.097Z,99.20
2022-08-19T10:07:52.842Z,98.70
2022-08-19T10:10:59.187Z,98.90
2022-08-19T10:14:03.083Z,99.30
2022-08-19T10:17:17.512Z,98.40
2022-08-19T10:20:22.827Z,98.50
2022-08-19T10:23:25.790Z,98.90
2022-08-19T10:26:32.574Z,98.80
2022-08-19T10:29:36.375Z,98.70
2022-08-19T10:32:49.370Z,99.60
2022-08-19T10:36:01.257Z,99.90
2022-08-19T10:39:08.571Z,99.40
2022-08-19T10:42:14.143Z,99.70
2022-08-19T10:45:17.625Z,99.90
2022-08-19T10:48:20.590Z,99.60
2022-08-19T10:51:46.633Z,99.90
2022-08-19T10:55:08.951Z,99.90
2022-08-19T10:58:15.007Z,99.90
2022-08-19T11:01:18.054Z,99.90
2022-08-19T11:04:23.430Z,99.80
2022-08-19T11:07:31.945Z,99.00
2022-08-19T11:10:35.092Z,98.80
2022-08-19T11:13:42.492Z,97.60
2022-08-19T11:16:45.696Z,98.00
2022-08-19T11:19:49.314Z,98.00
2022-08-19T11:22:54.507Z,97.80
2022-08-19T11:25:57.983Z,97.10
2022-08-19T11:29:03.094Z,96.20
2022-08-19T11:32:07.417Z,97.00
2022-08-19T11:35:12.128Z,96.60
2022-08-19T11:38:15.747Z,96.30
2022-08-19T11:41:20.665Z,96.50
2022-08-19T11:44:25.007Z,97.30
2022-08-19T11:47:27.967Z,95.90
2022-08-19T11:50:30.902Z,96.10
2022-08-19T11:53:35.121Z,95.60
2022-08-19T11:56:39.668Z,96.50
2022-08-19T11:59:44.040Z,96.20
2022-08-19T12:02:47.988Z,95.90
2022-08-19T12:05:51.799Z,95.50
2022-08-19T12:08:54.922Z,95.90
2022-08-19T12:11:57.928Z,95.60
2022-08-19T12:15:02.191Z,95.30
2022-08-19T12:18:06.579Z,95.80
2022-08-19T12:21:11.073Z,94.80
2022-08-19T12:24:14.216Z,95.00
2022-08-19T12:27:32.161Z,94.90
2022-08-19T12:30:41.531Z,95.00
2022-08-19T12:33:44.662Z,95.40
2022-08-19T12:36:50.143Z,95.20
2022-08-19T12:39:53.375Z,94.80
2022-08-19T12:42:57.184Z,94.60
2022-08-19T12:46:01.478Z,94.30
2022-08-19T12:49:16.797Z,94.50
2022-08-19T12:52:29.194Z,94.40
2022-08-19T12:55:32.718Z,93.90
2022-08-19T12:58:36.308Z,94.30
2022-08-19T13:01:41.723Z,95.40
2022-08-19T13:04:44.625Z,93.30
2022-08-19T13:07:47.637Z,94.30
2022-08-19T13:10:50.544Z,94.60
2022-08-19T13:13:56.164Z,94.30
2022-08-19T13:17:00.547Z,93.40
2022-08-19T13:20:03.808Z,94.10
2022-08-19T13:23:06.898Z,95.10
2022-08-19T13:26:11.106Z,94.10
2022-08-19T13:29:31.470Z,93.30
2022-08-19T13:32:53.105Z,93.20
2022-08-19T13:36:01.498Z,93.30
2022-08-19T13:39:05.097Z,92.90
2022-08-19T13:42:09.367Z,93.40
2022-08-19T13:45:12.840Z,93.20
2022-08-19T13:48:17.481Z,92.80
2022-08-19T13:51:21.028Z,92.90
2022-08-19T13:54:24.215Z,92.60
2022-08-19T13:57:27.257Z,93.10
2022-08-19T14:00:33.032Z,93.20
2022-08-19T14:03:37.575Z,93.00
2022-08-19T14:06:40.555Z,92.80
2022-08-19T14:09:43.717Z,92.90
2022-08-19T14:12:49.793Z,92.70
2022-08-19T14:15:54.041Z,92.80
2022-08-19T14:18:58.361Z,92.80
2022-08-19T14:22:01.302Z,92.60
2022-08-19T14:25:05.976Z,92.40
2022-08-19T14:28:09.507Z,92.40
2022-08-19T14:31:13.826Z,92.50
2022-08-19T14:34:18.150Z,92.50
2022-08-19T14:37:21.648Z,92.20
2022-08-19T14:40:27.590Z,91.90
2022-08-19T14:43:30.642Z,92.20
2022-08-19T14:46:33.665Z,92.10
2022-08-19T14:49:42.320Z,92.50
2022-08-19T14:52:48.751Z,92.20
2022-08-19T14:55:51.962Z,91.80
2022-08-19T14:58:55.426Z,92.30
2022-08-19T15:01:58.498Z,92.20
2022-08-19T15:05:23.106Z,91.80
2022-08-19T15:08:26.441Z,92.10
2022-08-19T15:11:30.311Z,92.10
2022-08-19T15:14:35.757Z,92.40
2022-08-19T15:17:45.366Z,92.50
2022-08-19T15:20:58.663Z,92.70
2022-08-19T15:24:02.679Z,92.50
2022-08-19T15:27:06.073Z,92.70
2022-08-19T15:30:10.740Z,93.40
2022-08-19T15:33:16.370Z,93.80
2022-08-19T15:36:21.742Z,94.10
2022-08-19T15:39:24.704Z,94.30
2022-08-19T15:42:29.900Z,94.40
2022-08-19T15:45:33.589Z,94.40
2022-08-19T15:48:38.032Z,95.10
2022-08-19T15:51:44.068Z,94.50
2022-08-19T15:54:46.989Z,94.70
2022-08-19T15:58:07.440Z,94.90
2022-08-19T16:01:41.214Z,95.30
2022-08-19T16:05:01.657Z,95.20
2022-08-19T16:08:06.046Z,95.10
2022-08-19T16:11:08.995Z,94.40
2022-08-19T16:14:12.123Z,95.30
2022-08-19T16:17:15.066Z,94.70
2022-08-19T16:20:19.906Z,94.90
2022-08-19T16:23:24.696Z,94.20
2022-08-19T16:26:31.019Z,94.70
2022-08-19T16:29:39.037Z,95.20
2022-08-19T16:32:44.588Z,94.90
2022-08-19T16:35:47.806Z,95.20
2022-08-19T16:39:04.543Z,95.10
2022-08-19T16:42:10.115Z,95.00
2022-08-19T16:45:13.091Z,95.10
2022-08-19T16:48:15.997Z,95.10
2022-08-19T16:51:19.039Z,94.70
2022-08-19T16:54:23.360Z,94.80
2022-08-19T16:57:26.293Z,94.80
2022-08-19T17:00:29.238Z,94.90
2022-08-19T17:03:35.824Z,95.20
2022-08-19T17:06:39.664Z,95.30
2022-08-19T17:09:44.034Z,95.60
2022-08-19T17:12:49.530Z,95.30
2022-08-19T17:15:52.500Z,95.30
2022-08-19T17:18:58.685Z,95.20
2022-08-19T17:22:01.621Z,95.40
2022-08-19T17:25:06.600Z,95.40
2022-08-19T17:28:10.726Z,95.00
2022-08-19T17:31:13.640Z,95.20
2022-08-19T17:34:17.144Z,95.40
2022-08-19T17:37:20.082Z,95.20
2022-08-19T17:40:24.986Z,95.10
2022-08-19T17:43:34.539Z,95.20
2022-08-19T17:46:40.032Z,95.40
2022-08-19T17:49:42.936Z,95.50
2022-08-19T17:52:45.890Z,95.70
2022-08-19T17:55:50.261Z,95.50
2022-08-19T17:59:00.609Z,95.10
2022-08-19T18:02:05.218Z,95.20
2022-08-19T18:05:08.604Z,95.10
2022-08-19T18:08:12.575Z,94.90
2022-08-19T18:11:17.678Z,95.00
2022-08-19T18:14:20.651Z,94.80
2022-08-19T18:17:25.464Z,94.70
2022-08-19T18:20:28.421Z,94.90
2022-08-19T18:23:43.827Z,94.30
2022-08-19T18:26:50.238Z,94.40
2022-08-19T18:29:54.622Z,94.20
2022-08-19T18:32:59.767Z,94.10
2022-08-19T18:36:03.927Z,94.10
2022-08-19T18:39:29.208Z,94.30
2022-08-19T18:42:51.174Z,94.30
2022-08-19T18:46:11.449Z,94.60
2022-08-19T18:49:18.249Z,94.50
2022-08-19T18:52:25.403Z,94.40
2022-08-19T18:55:29.369Z,94.40
2022-08-19T18:58:34.978Z,94.20
2022-08-19T19:01:41.279Z,94.40
2022-08-19T19:04:44.372Z,94.30
2022-08-19T19:07:48.435Z,94.20
2022-08-19T19:10:51.471Z,94.10
2022-08-19T19:13:55.802Z,94.10
2022-08-19T19:16:59.942Z,94.60
2022-08-19T19:20:03.140Z,94.70
2022-08-19T19:23:06.090Z,94.70
2022-08-19T19:26:10.484Z,94.70
2022-08-19T19:29:15.750Z,95.10
2022-08-19T19:32:21.918Z,94.90
2022-08-19T19:35:24.961Z,94.90
2022-08-19T19:38:27.919Z,94.80
2022-08-19T19:41:32.742Z,94.80
2022-08-19T19:44:40.025Z,94.80
2022-08-19T19:47:50.217Z,94.90
2022-08-19T19:50:55.938Z,95.10
2022-08-19T19:53:59.383Z,95.40
2022-08-19T19:57:02.307Z,95.20
2022-08-19T20:00:09.229Z,95.00
2022-08-19T20:03:12.173Z,95.40
2022-08-19T20:06:17.692Z,95.30
2022-08-19T20:09:20.773Z,95.30
2022-08-19T20:12:23.701Z,95.40
2022-08-19T20:15:28.515Z,95.10
2022-08-19T20:18:31.566Z,95.40
2022-08-19T20:21:34.903Z,95.20
2022-08-19T20:24:39.130Z,95.10
2022-08-19T20:27:43.352Z,95.20
2022-08-19T20:30:48.077Z,95.20
2022-08-19T20:33:51.652Z,95.00
2022-08-19T20:36:54.611Z,95.90
2022-08-19T20:39:57.599Z,96.00
2022-08-19T20:43:01.239Z,95.80
2022-08-19T20:46:06.259Z,95.90
2022-08-19T20:49:09.515Z,96.10
2022-08-19T20:52:12.462Z,96.10
2022-08-19T20:55:15.997Z,96.10
2022-08-19T20:58:24.744Z,96.20
2022-08-19T21:01:29.021Z,96.10
2022-08-19T21:04:33.074Z,96.00
2022-08-19T21:07:38.941Z,96.50
2022-08-19T21:10:42.833Z,96.90
2022-08-19T21:13:45.768Z,97.10
2022-08-19T21:16:50.407Z,97.00
2022-08-19T21:19:53.334Z,96.90
2022-08-19T21:22:56.291Z,97.00
2022-08-19T21:26:00.922Z,97.00
2022-08-19T21:29:04.038Z,97.20
2022-08-19T21:32:11.168Z,96.80
2022-08-19T21:35:17.441Z,97.10
2022-08-19T21:38:20.379Z,97.20
2022-08-19T21:41:23.629Z,97.30
2022-08-19T21:44:26.603Z,97.40
2022-08-19T21:47:30.984Z,97.00
2022-08-19T21:50:34.341Z,97.40
2022-08-19T21:53:37.987Z,97.50
2022-08-19T21:56:41.150Z,97.60
2022-08-19T21:59:44.434Z,97.60
2022-08-19T22:02:48.750Z,97.10
2022-08-19T22:05:52.174Z,97.30
2022-08-19T22:08:55.587Z,97.40
2022-08-19T22:11:58.802Z,97.30
2022-08-19T22:15:02.040Z,97.40
2022-08-19T22:18:06.470Z,97.50
2022-08-19T22:21:11.963Z,97.40
2022-08-19T22:24:15.264Z,97.00
2022-08-19T22:27:19.108Z,97.10
2022-08-19T22:30:23.813Z,97.30
2022-08-19T22:33:29.646Z,97.10
2022-08-19T22:36:32.657Z,97.40
2022-08-19T22:39:35.677Z,97.30
2022-08-19T22:42:39.028Z,97.20
2022-08-19T22:45:42.962Z,97.50
2022-08-19T22:48:48.141Z,97.70
2022-08-19T22:52:18.522Z,97.70
2022-08-19T22:55:21.563Z,97.70
2022-08-19T22:58:27.035Z,98.30
2022-08-19T23:01:31.580Z,98.20
2022-08-19T23:04:36.432Z,98.30
2022-08-19T23:07:39.503Z,98.30
2022-08-19T23:10:42.602Z,98.50
2022-08-19T23:13:46.658Z,99.10
2022-08-19T23:16:51.492Z,98.70
2022-08-19T23:19:56.221Z,98.70
2022-08-19T23:22:59.213Z,98.60
2022-08-19T23:26:02.116Z,98.60
2022-08-19T23:29:23.223Z,98.50
2022-08-19T23:32:26.470Z,98.50
2022-08-19T23:35:33.809Z,98.60
2022-08-19T23:38:36.794Z,98.40
2022-08-19T23:41:39.814Z,98.60
2022-08-19T23:44:52.157Z,98.60
2022-08-19T23:47:56.154Z,98.90
2022-08-19T23:51:01.077Z,98.60
2022-08-19T23:54:04.079Z,98.70
2022-08-19T23:57:13.943Z,99.20
